Time;durP1;ratioP1;P1;durP2;ratioP2;P2;SDS_P1;SDS_P2;PMS_P1;PMS_P2;Temp;Humidity;BMP_temperature;BMP_pressure;BME280_temperature;BME280_humidity;BME280_pressure;Samples;Min_cycle;Max_cycle;Signal;HPM_P1;HPM_P2
2022/06/12 00:01:50;;;;;;;2.72;0.70;;;14.50;99.90;;;;;;5073160;28;20287;-76
2022/06/12 00:04:21;;;;;;;1.73;0.90;;;14.70;99.90;;;;;;5062878;28;20201;-75
2022/06/12 00:06:52;;;;;;;1.25;0.60;;;14.70;99.90;;;;;;5073696;28;20200;-76
2022/06/12 00:09:24;;;;;;;2.50;0.65;;;14.80;99.90;;;;;;5073494;28;20275;-76
2022/06/12 00:11:57;;;;;;;1.30;0.50;;;14.90;99.90;;;;;;5073227;28;20632;-77
2022/06/12 00:14:27;;;;;;;2.88;0.60;;;15.00;99.90;;;;;;5073545;28;20193;-76
2022/06/12 00:16:58;;;;;;;1.27;0.50;;;15.10;99.90;;;;;;5073576;28;20197;-76
2022/06/12 00:19:30;;;;;;;2.70;0.50;;;15.10;99.90;;;;;;5073564;28;20217;-76
2022/06/12 00:22:01;;;;;;;2.17;0.50;;;15.20;99.90;;;;;;5073475;28;20705;-76
2022/06/12 00:24:32;;;;;;;1.67;0.60;;;15.30;99.90;;;;;;5073248;28;20228;-77
2022/06/12 00:27:04;;;;;;;1.45;0.30;;;15.40;99.90;;;;;;5064820;28;20651;-76
2022/06/12 00:29:37;;;;;;;1.15;0.40;;;15.60;99.90;;;;;;5073345;28;20659;-76
2022/06/12 00:32:12;;;;;;;1.75;0.50;;;15.70;99.90;;;;;;5073556;28;20200;-75
2022/06/12 00:34:45;;;;;;;1.77;0.55;;;15.70;99.90;;;;;;5073274;28;20195;-76
2022/06/12 00:37:17;;;;;;;0.57;0.30;;;15.70;99.90;;;;;;5073284;28;20185;-75
2022/06/12 00:39:50;;;;;;;2.95;0.50;;;15.80;99.90;;;;;;5073079;28;20216;-76
2022/06/12 00:42:27;;;;;;;1.90;0.50;;;15.90;99.90;;;;;;5073225;28;20545;-77
2022/06/12 00:44:59;;;;;;;1.33;0.40;;;15.90;99.90;;;;;;5073194;28;20197;-77
2022/06/12 00:47:30;;;;;;;1.33;0.40;;;16.00;99.90;;;;;;5073334;28;20240;-76
2022/06/12 00:50:03;;;;;;;1.45;0.55;;;16.20;99.90;;;;;;5073120;28;20185;-74
2022/06/12 00:52:38;;;;;;;1.08;0.40;;;16.30;99.90;;;;;;5073060;28;20193;-78
2022/06/12 00:55:14;;;;;;;3.55;0.55;;;16.40;99.90;;;;;;5072862;28;20596;-75
2022/06/12 00:57:48;;;;;;;1.83;0.40;;;16.40;99.90;;;;;;5073250;28;20237;-76
2022/06/12 01:00:20;;;;;;;2.05;0.50;;;16.30;99.90;;;;;;5077000;28;20195;-76
2022/06/12 01:02:52;;;;;;;3.67;0.60;;;16.40;99.90;;;;;;5076415;28;20213;-75
2022/06/12 01:08:11;;;;;;;0.93;0.30;;;16.50;99.90;;;;;;5076966;28;20730;-76
2022/06/12 01:10:45;;;;;;;0.90;0.40;;;16.60;99.90;;;;;;5076891;28;20712;-75
2022/06/12 01:13:23;;;;;;;0.65;0.30;;;16.70;99.90;;;;;;5077064;28;20192;-77
2022/06/12 01:15:57;;;;;;;0.30;0.30;;;16.70;99.90;;;;;;5076859;28;20200;-76
2022/06/12 01:18:31;;;;;;;1.15;0.38;;;16.70;99.90;;;;;;5076785;28;20268;-77
2022/06/12 01:21:22;;;;;;;1.17;0.40;;;16.80;99.90;;;;;;5076657;28;20201;-79
2022/06/12 01:24:12;;;;;;;1.52;0.50;;;16.80;99.90;;;;;;5075886;28;20189;-78
2022/06/12 01:27:11;;;;;;;1.08;0.50;;;17.00;99.90;;;;;;5056484;28;20193;-74
2022/06/12 01:29:54;;;;;;;0.98;0.30;;;17.00;99.90;;;;;;5054184;28;20410;-79
2022/06/12 01:32:31;;;;;;;1.10;0.47;;;17.00;99.90;;;;;;5076481;28;20196;-76
2022/06/12 01:35:09;;;;;;;2.60;0.35;;;17.10;99.90;;;;;;5076440;28;20254;-75
2022/06/12 01:37:49;;;;;;;0.93;0.40;;;17.10;99.90;;;;;;5076304;28;20546;-74
2022/06/12 01:40:32;;;;;;;1.67;0.40;;;17.20;99.90;;;;;;5076262;28;20221;-75
2022/06/12 01:43:13;;;;;;;1.75;0.47;;;17.20;99.90;;;;;;5076182;28;20313;-78
2022/06/12 01:45:53;;;;;;;1.95;0.47;;;17.20;99.90;;;;;;5076200;28;20233;-78
2022/06/12 01:48:34;;;;;;;2.08;0.38;;;17.20;99.90;;;;;;5076473;28;20662;-76
2022/06/12 01:51:19;;;;;;;2.42;0.47;;;17.30;99.90;;;;;;5076154;28;20258;-77
2022/06/12 01:53:59;;;;;;;1.55;0.40;;;17.30;99.90;;;;;;5075905;28;20272;-76
2022/06/12 01:56:37;;;;;;;2.03;0.50;;;17.40;99.90;;;;;;5075916;28;20200;-75
2022/06/12 01:59:15;;;;;;;1.05;0.40;;;17.40;99.90;;;;;;5075533;28;20222;-75
2022/06/12 02:01:54;;;;;;;2.60;0.43;;;17.40;99.90;;;;;;5074744;28;20274;-76
2022/06/12 02:04:32;;;;;;;3.08;0.60;;;17.40;99.90;;;;;;5075131;28;20193;-78
2022/06/12 02:07:11;;;;;;;0.40;0.40;;;17.40;99.90;;;;;;5074057;28;20246;-79
2022/06/12 02:09:46;;;;;;;2.40;0.70;;;17.50;99.90;;;;;;5074502;28;20200;-75
2022/06/12 02:15:10;;;;;;;1.30;0.40;;;17.60;99.90;;;;;;5076065;28;20281;-78
2022/06/12 02:17:50;;;;;;;1.63;0.32;;;17.50;99.90;;;;;;5075094;28;20185;-76
2022/06/12 02:20:28;;;;;;;2.50;0.30;;;17.50;99.90;;;;;;5068276;28;20209;-76
2022/06/12 02:23:00;;;;;;;0.63;0.40;;;17.60;99.90;;;;;;5072621;28;20196;-78
2022/06/12 02:25:33;;;;;;;1.85;0.40;;;17.60;99.90;;;;;;5074932;28;20185;-78
2022/06/12 02:28:09;;;;;;;0.43;0.40;;;17.50;99.90;;;;;;5073645;28;20665;-82
2022/06/12 02:30:43;;;;;;;0.80;0.40;;;17.60;99.90;;;;;;5074318;28;20189;-77
2022/06/12 02:33:20;;;;;;;1.38;0.32;;;17.60;99.90;;;;;;5074597;28;20278;-78
2022/06/12 02:35:56;;;;;;;0.75;0.20;;;17.50;99.90;;;;;;5074439;28;20223;-77
2022/06/12 02:38:31;;;;;;;0.88;0.50;;;17.40;99.90;;;;;;5074843;28;20188;-76
2022/06/12 02:41:04;;;;;;;1.45;0.40;;;17.30;99.90;;;;;;5074692;28;20212;-77
2022/06/12 02:43:40;;;;;;;0.80;0.45;;;17.20;99.90;;;;;;5074366;28;20185;-76
2022/06/12 02:46:14;;;;;;;1.02;0.30;;;17.30;99.90;;;;;;5074720;28;20228;-76
2022/06/12 02:48:48;;;;;;;1.52;0.40;;;17.30;99.90;;;;;;5074397;28;20184;-78
2022/06/12 02:51:28;;;;;;;2.22;0.50;;;17.40;99.90;;;;;;5073862;28;20665;-76
2022/06/12 02:54:06;;;;;;;1.48;0.40;;;17.40;99.90;;;;;;5073684;28;20196;-77
2022/06/12 02:56:56;;;;;;;0.65;0.40;;;17.50;99.90;;;;;;5071722;28;20181;-78
2022/06/12 02:59:36;;;;;;;0.60;0.40;;;17.50;99.90;;;;;;5070649;28;20231;-77
2022/06/12 03:02:13;;;;;;;1.08;0.30;;;17.50;99.90;;;;;;5071914;28;20295;-77
2022/06/12 03:04:52;;;;;;;1.38;0.20;;;17.50;99.90;;;;;;5073892;28;20189;-77
2022/06/12 03:07:24;;;;;;;1.40;0.50;;;17.40;99.90;;;;;;5067366;28;20267;-76
2022/06/12 03:09:54;;;;;;;0.70;0.40;;;17.50;99.90;;;;;;5070691;28;20192;-77
2022/06/12 03:12:28;;;;;;;0.40;0.40;;;17.60;99.90;;;;;;5070735;28;20574;-76
2022/06/12 03:14:58;;;;;;;0.50;0.40;;;17.60;99.90;;;;;;5072713;28;20193;-76
2022/06/12 03:17:29;;;;;;;1.10;0.30;;;17.50;99.90;;;;;;5070202;28;20632;-77
2022/06/12 03:20:02;;;;;;;0.68;0.32;;;17.50;99.90;;;;;;5072678;28;20221;-76
2022/06/12 03:22:41;;;;;;;1.90;0.35;;;17.50;99.90;;;;;;5073478;28;20603;-77
2022/06/12 03:25:20;;;;;;;0.68;0.40;;;17.40;99.90;;;;;;5073066;28;20191;-77
2022/06/12 03:28:00;;;;;;;0.43;0.32;;;17.40;99.90;;;;;;5073361;28;20181;-77
2022/06/12 03:30:35;;;;;;;0.47;0.30;;;17.40;99.90;;;;;;5073452;28;20193;-76
2022/06/12 03:33:13;;;;;;;0.25;0.20;;;17.40;99.90;;;;;;5073756;28;20636;-76
2022/06/12 03:35:55;;;;;;;2.13;0.60;;;17.40;99.90;;;;;;5073406;28;20195;-75
2022/06/12 03:38:33;;;;;;;1.52;0.22;;;17.30;99.90;;;;;;5069918;28;20195;-78
2022/06/12 03:41:10;;;;;;;0.57;0.30;;;17.30;99.90;;;;;;5072683;28;20282;-77
2022/06/12 03:43:43;;;;;;;1.25;0.40;;;17.20;99.90;;;;;;5072660;28;20185;-78
2022/06/12 03:46:24;;;;;;;1.25;0.38;;;17.20;99.90;;;;;;5073045;28;20221;-77
2022/06/12 03:49:01;;;;;;;2.00;0.45;;;17.30;99.90;;;;;;5072252;28;20188;-76
2022/06/12 03:51:40;;;;;;;1.23;0.60;;;17.20;99.90;;;;;;5072310;28;20185;-76
2022/06/12 03:54:17;;;;;;;0.63;0.40;;;17.20;99.90;;;;;;5072766;28;20201;-77
2022/06/12 04:09:38;;;;;;;0.60;0.38;;;17.10;99.90;;;;;;5071644;28;20223;-77
2022/06/12 04:15:46;;;;;;;1.45;0.30;;;17.20;99.90;;;;;;4996897;28;20199;-74
2022/06/12 04:29:06;;;;;;;0.38;0.30;;;17.00;99.90;;;;;;4948465;29;20189;-75
2022/06/12 05:13:01;;;;;;;0.88;0.52;;;16.80;99.90;;;;;;5026372;28;20655;-77
2022/06/12 05:26:26;;;;;;;0.88;0.50;;;16.60;99.90;;;;;;4973869;28;20279;-78
2022/06/12 05:42:40;;;;;;;2.05;0.50;;;16.40;99.90;;;;;;4894186;29;20222;-83
2022/06/12 05:45:59;;;;;;;0.65;0.40;;;16.50;99.90;;;;;;4896291;29;20207;-79
2022/06/12 05:52:01;;;;;;;0.85;0.63;;;16.40;99.90;;;;;;4916221;29;20245;-78
2022/06/12 06:04:12;;;;;;;3.22;2.10;;;16.10;99.90;;;;;;4842307;29;20741;-76
2022/06/12 06:06:47;;;;;;;2.95;0.98;;;16.10;99.90;;;;;;4842633;29;20216;-78
2022/06/12 06:09:18;;;;;;;2.20;0.40;;;16.10;99.90;;;;;;4841286;29;20240;-77
2022/06/12 06:11:50;;;;;;;1.55;1.00;;;16.00;99.90;;;;;;4842266;29;20230;-78
2022/06/12 06:14:21;;;;;;;3.10;1.48;;;15.90;99.90;;;;;;4842162;29;20209;-75
2022/06/12 06:16:51;;;;;;;0.90;0.50;;;15.90;99.90;;;;;;4842188;29;20614;-76
2022/06/12 06:19:24;;;;;;;1.08;0.70;;;15.80;99.90;;;;;;4863432;29;20203;-77
2022/06/12 06:21:55;;;;;;;2.15;0.95;;;15.70;99.90;;;;;;4895269;29;20199;-78
2022/06/12 06:24:26;;;;;;;0.68;0.43;;;15.70;99.90;;;;;;4892140;29;20209;-77
2022/06/12 06:26:57;;;;;;;1.63;0.50;;;15.60;99.90;;;;;;4892219;29;20203;-76
2022/06/12 06:29:28;;;;;;;1.80;0.70;;;15.50;99.90;;;;;;4891634;29;20218;-77
2022/06/12 06:31:59;;;;;;;2.28;1.17;;;15.50;99.90;;;;;;4896187;29;20252;-79
2022/06/12 06:34:32;;;;;;;0.93;0.63;;;15.40;99.90;;;;;;4910442;29;20310;-78
2022/06/12 06:37:03;;;;;;;0.45;0.30;;;15.30;99.90;;;;;;4951429;29;20197;-76
2022/06/12 06:39:34;;;;;;;1.95;0.70;;;15.20;99.90;;;;;;5023570;28;20650;-79
2022/06/12 06:42:04;;;;;;;2.28;1.10;;;15.20;99.90;;;;;;5028097;28;20199;-79
2022/06/12 06:47:22;;;;;;;1.10;0.60;;;15.00;99.90;;;;;;5041621;28;20204;-78
2022/06/12 06:49:55;;;;;;;0.80;0.70;;;14.90;99.90;;;;;;5068140;28;20201;-77
2022/06/12 06:52:26;;;;;;;0.88;0.43;;;14.90;99.90;;;;;;5068159;28;20221;-76
2022/06/12 06:54:57;;;;;;;1.02;0.70;;;14.90;99.90;;;;;;5070888;28;20232;-78
2022/06/12 06:57:28;;;;;;;0.77;0.50;;;14.80;99.90;;;;;;5063403;28;20193;-78
2022/06/12 06:59:58;;;;;;;0.93;0.47;;;14.70;99.90;;;;;;5071008;28;20216;-77
2022/06/12 07:02:29;;;;;;;0.55;0.52;;;14.70;99.90;;;;;;5067198;28;20221;-77
2022/06/12 07:05:02;;;;;;;1.42;0.50;;;14.70;99.90;;;;;;5068706;28;20193;-78
2022/06/12 07:07:33;;;;;;;0.60;0.40;;;14.60;99.90;;;;;;5069614;28;20193;-78
2022/06/12 07:10:04;;;;;;;0.88;0.60;;;14.60;99.90;;;;;;5062559;28;20271;-77
2022/06/12 07:12:35;;;;;;;0.73;0.50;;;14.60;99.90;;;;;;5066162;28;20681;-78
2022/06/12 07:15:06;;;;;;;0.98;0.40;;;14.50;99.90;;;;;;5067868;28;20224;-77
2022/06/12 07:17:36;;;;;;;0.93;0.40;;;14.50;99.90;;;;;;5070293;28;20199;-78
2022/06/12 07:20:10;;;;;;;2.17;0.47;;;14.40;99.90;;;;;;5069489;28;20220;-79
2022/06/12 07:22:41;;;;;;;0.57;0.40;;;14.40;99.90;;;;;;5072176;28;20652;-78
2022/06/12 07:25:14;;;;;;;0.50;0.50;;;14.40;99.90;;;;;;5070024;28;20214;-77
2022/06/12 07:27:45;;;;;;;0.52;0.50;;;14.30;99.90;;;;;;5066799;28;20656;-79
2022/06/12 07:30:19;;;;;;;1.00;0.40;;;14.30;99.90;;;;;;5067680;28;20578;-78
2022/06/12 07:32:50;;;;;;;1.17;0.50;;;14.20;99.90;;;;;;5067572;28;20682;-77
2022/06/12 07:35:23;;;;;;;0.85;0.60;;;14.20;99.90;;;;;;5068220;28;20201;-76
2022/06/12 07:37:54;;;;;;;0.40;0.40;;;14.20;99.90;;;;;;5067786;28;20201;-77
2022/06/12 07:40:29;;;;;;;0.82;0.50;;;14.10;99.90;;;;;;5070386;28;20205;-78
2022/06/12 07:43:00;;;;;;;0.50;0.50;;;14.10;99.90;;;;;;5069717;28;20278;-78
2022/06/12 07:45:31;;;;;;;0.70;0.50;;;14.10;99.90;;;;;;5061569;28;20539;-77
2022/06/12 07:48:01;;;;;;;0.63;0.50;;;14.10;99.90;;;;;;5067257;28;20201;-78
2022/06/12 07:50:34;;;;;;;0.40;0.40;;;14.10;99.90;;;;;;5066812;28;20207;-77
2022/06/12 07:53:05;;;;;;;0.88;0.70;;;14.00;99.90;;;;;;5062488;28;20201;-77
2022/06/12 07:55:35;;;;;;;1.00;0.70;;;14.00;99.90;;;;;;5068320;28;20679;-79
2022/06/12 07:58:06;;;;;;;1.52;0.90;;;14.00;99.90;;;;;;5056915;28;20226;-79
2022/06/12 08:00:37;;;;;;;2.25;0.43;;;13.90;99.90;;;;;;5066538;28;20606;-78
2022/06/12 08:03:08;;;;;;;1.23;0.60;;;13.90;99.90;;;;;;5067422;28;20237;-80
2022/06/12 08:05:41;;;;;;;0.50;0.50;;;13.90;99.90;;;;;;5071817;28;20658;-77
2022/06/12 08:08:12;;;;;;;0.50;0.50;;;13.90;99.90;;;;;;5071881;28;20200;-77
2022/06/12 08:10:43;;;;;;;2.15;0.80;;;13.80;99.90;;;;;;5068367;28;20232;-78
2022/06/12 08:13:14;;;;;;;0.82;0.80;;;13.80;99.90;;;;;;5067913;28;20189;-78
2022/06/12 08:15:47;;;;;;;1.35;0.60;;;13.80;99.90;;;;;;5065761;28;20181;-77
2022/06/12 08:18:20;;;;;;;0.77;0.70;;;13.80;99.90;;;;;;5068068;28;20193;-78
2022/06/12 08:20:55;;;;;;;1.20;0.80;;;13.70;99.90;;;;;;5068987;28;20217;-79
2022/06/12 08:23:29;;;;;;;1.38;0.80;;;13.70;99.90;;;;;;5071212;28;20189;-79
2022/06/12 08:26:03;;;;;;;0.98;0.80;;;13.70;99.90;;;;;;5068463;28;20193;-78
2022/06/12 08:28:37;;;;;;;1.17;0.55;;;13.70;99.90;;;;;;5059254;28;20197;-76
2022/06/12 08:31:10;;;;;;;0.93;0.73;;;13.70;99.90;;;;;;5066553;28;20207;-79
2022/06/12 08:33:43;;;;;;;0.50;0.50;;;13.70;99.90;;;;;;5065334;28;20196;-78
2022/06/12 08:36:18;;;;;;;0.75;0.50;;;13.60;99.90;;;;;;5067820;28;20721;-77
2022/06/12 08:38:49;;;;;;;2.22;0.68;;;13.60;99.90;;;;;;5065684;28;20709;-76
2022/06/12 08:41:25;;;;;;;1.85;0.98;;;13.60;99.90;;;;;;5069418;28;20209;-79
2022/06/12 08:44:03;;;;;;;1.70;0.73;;;13.60;99.90;;;;;;5069205;28;20193;-76
2022/06/12 08:46:39;;;;;;;0.90;0.80;;;13.50;99.90;;;;;;5068711;28;20225;-78
2022/06/12 08:49:17;;;;;;;2.72;0.95;;;13.50;99.90;;;;;;5068736;28;20201;-77
2022/06/12 08:51:54;;;;;;;2.92;1.20;;;13.50;99.90;;;;;;5070963;28;20660;-78
2022/06/12 08:54:29;;;;;;;0.57;0.57;;;13.50;99.90;;;;;;5062598;28;20193;-77
2022/06/12 08:57:08;;;;;;;1.27;0.70;;;13.50;99.90;;;;;;5065486;28;20200;-77
2022/06/12 08:59:42;;;;;;;1.33;0.90;;;13.50;99.90;;;;;;5067045;28;20196;-79
2022/06/12 09:02:26;;;;;;;1.42;0.90;;;13.50;99.90;;;;;;5065160;28;20582;-78
2022/06/12 09:05:00;;;;;;;1.15;0.68;;;13.40;99.90;;;;;;5069322;28;20193;-79
2022/06/12 09:07:48;;;;;;;0.77;0.68;;;13.40;99.90;;;;;;5067337;28;20280;-77
2022/06/12 09:10:31;;;;;;;0.65;0.50;;;13.30;99.90;;;;;;5062604;28;20325;-77
2022/06/12 09:13:11;;;;;;;1.10;0.60;;;13.30;99.90;;;;;;5067622;28;20207;-78
2022/06/12 09:15:46;;;;;;;0.68;0.55;;;13.30;99.90;;;;;;5063616;28;20200;-76
2022/06/12 09:18:25;;;;;;;1.92;0.70;;;13.30;99.90;;;;;;5067334;28;20207;-79
2022/06/12 09:21:05;;;;;;;0.88;0.60;;;13.30;99.90;;;;;;5070329;28;20217;-78
2022/06/12 09:23:46;;;;;;;0.60;0.60;;;13.30;99.90;;;;;;5067301;28;20228;-76
2022/06/12 09:26:25;;;;;;;3.42;0.60;;;13.20;99.90;;;;;;5061825;28;20199;-78
2022/06/12 09:29:04;;;;;;;1.13;0.60;;;13.20;99.90;;;;;;5070013;28;20667;-78
2022/06/12 09:31:46;;;;;;;0.60;0.60;;;13.20;99.90;;;;;;5074577;28;20197;-78
2022/06/12 09:34:29;;;;;;;0.88;0.60;;;13.10;99.90;;;;;;5066634;28;20200;-78
2022/06/12 09:40:18;;;;;;;0.50;0.50;;;13.10;99.90;;;;;;5032820;28;20219;-78
2022/06/12 09:42:58;;;;;;;0.88;0.60;;;13.10;99.90;;;;;;5068966;28;20678;-78
2022/06/12 09:45:35;;;;;;;1.10;0.70;;;13.00;99.90;;;;;;5073329;28;20254;-78
2022/06/12 09:48:21;;;;;;;1.15;0.82;;;13.00;99.90;;;;;;5070681;28;20596;-79
2022/06/12 09:51:05;;;;;;;0.85;0.80;;;13.00;99.90;;;;;;5060568;28;20248;-78
2022/06/12 09:54:01;;;;;;;1.63;0.88;;;12.90;99.90;;;;;;5066952;28;20554;-78
2022/06/12 09:56:41;;;;;;;2.38;1.00;;;12.90;99.90;;;;;;5059920;28;20243;-80
2022/06/12 09:59:16;;;;;;;1.35;0.80;;;12.80;99.90;;;;;;5073803;28;20200;-79
2022/06/12 10:01:51;;;;;;;1.48;0.70;;;12.80;99.90;;;;;;5066152;28;20233;-79
2022/06/12 10:04:27;;;;;;;1.23;0.77;;;12.80;99.90;;;;;;5070973;28;20207;-78
2022/06/12 10:07:08;;;;;;;1.23;0.82;;;12.80;99.90;;;;;;5072847;28;20203;-80
2022/06/12 10:09:41;;;;;;;1.35;0.75;;;12.80;99.90;;;;;;5072288;28;20237;-79
2022/06/12 10:12:21;;;;;;;1.02;0.90;;;12.80;99.90;;;;;;5068960;28;20189;-78
2022/06/12 10:14:55;;;;;;;2.05;1.02;;;12.70;99.90;;;;;;5073078;28;20197;-78
2022/06/12 10:17:32;;;;;;;4.32;1.50;;;12.70;99.90;;;;;;5066905;28;20238;-80
2022/06/12 10:20:16;;;;;;;2.30;1.40;;;12.70;99.90;;;;;;5065856;28;20547;-79
2022/06/12 10:22:49;;;;;;;3.03;1.33;;;12.60;99.90;;;;;;5071212;28;20256;-80
2022/06/12 10:25:22;;;;;;;2.35;1.30;;;12.60;99.90;;;;;;5074224;28;20200;-78
2022/06/12 10:27:59;;;;;;;1.10;1.00;;;12.50;99.90;;;;;;5071435;28;20274;-77
2022/06/12 10:30:36;;;;;;;1.63;1.10;;;12.50;99.90;;;;;;5071891;28;20192;-78
2022/06/12 10:33:21;;;;;;;2.30;1.20;;;12.50;99.90;;;;;;5065836;28;20197;-77
2022/06/12 10:35:55;;;;;;;1.63;1.30;;;12.40;99.90;;;;;;5066247;28;20189;-79
2022/06/12 10:38:26;;;;;;;1.92;1.30;;;12.40;99.90;;;;;;5069982;28;20652;-80
2022/06/12 10:41:01;;;;;;;2.95;1.33;;;12.40;99.90;;;;;;5067807;28;20205;-79
2022/06/12 10:43:37;;;;;;;2.28;1.33;;;12.30;99.90;;;;;;5066633;28;20205;-79
2022/06/12 10:46:19;;;;;;;2.20;1.50;;;12.30;99.90;;;;;;5064635;28;20206;-78
2022/06/12 10:49:02;;;;;;;2.40;1.45;;;12.20;99.90;;;;;;5066410;28;20593;-78
2022/06/12 10:51:36;;;;;;;2.67;1.55;;;12.20;99.90;;;;;;5065589;28;20229;-79
2022/06/12 10:54:15;;;;;;;3.05;1.70;;;12.20;99.90;;;;;;5069921;28;20197;-80
2022/06/12 10:56:49;;;;;;;3.97;1.60;;;12.20;99.90;;;;;;5068866;28;20185;-79
2022/06/12 10:59:37;;;;;;;3.60;1.80;;;12.20;99.90;;;;;;5071439;28;20193;-80
2022/06/12 11:05:44;;;;;;;1.73;1.42;;;12.10;99.90;;;;;;5064404;28;20664;-79
2022/06/12 11:08:38;;;;;;;2.03;1.50;;;12.10;99.90;;;;;;5059524;28;20201;-80
2022/06/12 11:11:32;;;;;;;1.77;1.30;;;12.00;99.90;;;;;;5059764;28;20223;-78
2022/06/12 11:14:26;;;;;;;2.47;1.45;;;12.00;99.90;;;;;;5063730;28;20201;-78
2022/06/12 11:17:09;;;;;;;2.55;1.50;;;12.00;99.90;;;;;;5070610;28;20193;-80
2022/06/12 11:19:54;;;;;;;2.63;1.40;;;12.00;99.90;;;;;;5071217;28;20200;-79
2022/06/12 11:22:41;;;;;;;2.58;1.50;;;12.00;99.90;;;;;;5071612;28;20235;-78
2022/06/12 11:25:32;;;;;;;3.28;1.38;;;12.00;99.90;;;;;;5062155;28;20197;-81
2022/06/12 11:28:22;;;;;;;2.88;1.50;;;11.90;99.90;;;;;;5071756;28;20562;-80
2022/06/12 11:31:08;;;;;;;2.80;1.38;;;12.00;99.90;;;;;;5068557;28;20543;-80
2022/06/12 11:37:09;;;;;;;2.42;1.30;;;11.90;99.90;;;;;;5061610;28;20558;-80
2022/06/12 11:40:13;;;;;;;2.45;1.33;;;11.90;99.90;;;;;;5067517;28;20196;-79
2022/06/12 11:42:53;;;;;;;1.70;1.17;;;11.90;99.90;;;;;;5071713;28;20221;-80
2022/06/12 11:45:33;;;;;;;1.80;1.30;;;11.90;99.90;;;;;;5056828;28;20272;-80
2022/06/12 11:48:16;;;;;;;1.35;1.17;;;11.80;99.90;;;;;;5061362;28;20212;-81
2022/06/12 11:50:54;;;;;;;2.38;1.38;;;11.90;99.90;;;;;;5072513;28;20646;-80
2022/06/12 11:53:41;;;;;;;1.65;1.27;;;11.80;99.90;;;;;;5072201;28;20200;-81
2022/06/12 11:56:38;;;;;;;2.35;1.30;;;11.80;99.90;;;;;;5067304;28;20627;-80
2022/06/12 11:59:40;;;;;;;2.97;1.40;;;11.80;99.90;;;;;;5068951;28;20780;-79
2022/06/12 12:02:20;;;;;;;2.45;1.30;;;11.70;99.90;;;;;;5067946;28;20235;-79
2022/06/12 12:05:26;;;;;;;1.55;1.20;;;11.70;99.90;;;;;;5072324;28;20188;-79
2022/06/12 12:08:09;;;;;;;3.45;1.40;;;11.70;99.90;;;;;;5067628;28;20675;-78
2022/06/12 12:13:42;;;;;;;2.22;1.40;;;11.60;99.90;;;;;;5068684;28;20215;-79
2022/06/12 12:16:25;;;;;;;3.03;1.20;;;11.50;99.90;;;;;;5066543;28;20193;-79
2022/06/12 12:19:03;;;;;;;1.92;1.20;;;11.50;99.90;;;;;;5071117;28;20199;-79
2022/06/12 12:21:37;;;;;;;3.10;1.45;;;11.50;99.90;;;;;;5072151;28;20254;-80
2022/06/12 12:24:17;;;;;;;2.03;1.02;;;11.40;99.90;;;;;;5062066;28;20569;-79
2022/06/12 12:26:50;;;;;;;2.20;1.10;;;11.40;99.90;;;;;;5062875;28;20652;-79
2022/06/12 12:29:23;;;;;;;2.10;1.30;;;11.40;99.90;;;;;;5058659;28;20272;-78
2022/06/12 12:31:54;;;;;;;3.28;1.50;;;11.40;99.90;;;;;;5062947;28;20640;-79
2022/06/12 12:34:27;;;;;;;2.65;1.38;;;11.40;99.90;;;;;;5067027;28;20195;-79
2022/06/12 12:42:43;;;;;;;1.75;1.30;;;11.30;99.90;;;;;;5067523;28;20376;-78
2022/06/12 12:45:31;;;;;;;1.95;1.33;;;11.30;99.90;;;;;;5064483;28;20189;-78
2022/06/12 12:48:02;;;;;;;1.50;1.23;;;11.30;99.90;;;;;;5067410;28;20196;-78
2022/06/12 12:50:44;;;;;;;2.45;1.30;;;11.30;99.90;;;;;;5068429;28;20562;-78
2022/06/12 12:53:32;;;;;;;3.17;1.25;;;11.30;99.90;;;;;;5068229;28;20196;-79
2022/06/12 12:56:10;;;;;;;1.70;1.00;;;11.30;99.90;;;;;;5058892;28;20215;-79
2022/06/12 12:58:43;;;;;;;2.35;1.00;;;11.20;99.90;;;;;;5067382;28;20686;-79
2022/06/12 13:01:22;;;;;;;1.35;1.15;;;11.20;99.90;;;;;;5064868;28;20213;-78
2022/06/12 13:03:55;;;;;;;1.48;1.25;;;11.10;99.90;;;;;;5063251;28;20546;-79
2022/06/12 13:06:50;;;;;;;2.08;1.10;;;11.10;99.90;;;;;;5064274;28;20189;-78
2022/06/12 13:09:44;;;;;;;2.25;1.20;;;11.10;99.90;;;;;;5065971;28;20228;-79
2022/06/12 13:12:44;;;;;;;1.25;1.10;;;11.10;99.90;;;;;;5071309;28;20185;-79
2022/06/12 13:15:35;;;;;;;1.38;1.10;;;11.10;99.90;;;;;;5045989;28;20684;-78
2022/06/12 13:18:14;;;;;;;2.35;1.17;;;11.10;99.90;;;;;;5067528;28;20197;-78
2022/06/12 13:21:00;;;;;;;1.65;1.00;;;11.10;99.90;;;;;;5060952;28;20200;-79
2022/06/12 13:24:20;;;;;;;1.63;1.05;;;11.10;99.90;;;;;;5066522;28;20578;-78
2022/06/12 13:26:51;;;;;;;1.83;1.02;;;11.10;99.90;;;;;;5061916;28;20197;-78
2022/06/12 13:29:24;;;;;;;2.03;1.15;;;11.10;99.90;;;;;;5066028;28;20196;-78
2022/06/12 13:32:00;;;;;;;1.38;1.00;;;11.10;99.90;;;;;;5070750;28;20192;-78
2022/06/12 13:34:32;;;;;;;1.20;0.90;;;11.10;99.90;;;;;;5063001;28;20565;-78
2022/06/12 13:37:06;;;;;;;2.38;0.98;;;11.10;99.90;;;;;;5070721;28;20262;-79
2022/06/12 13:39:41;;;;;;;1.13;0.90;;;11.10;99.90;;;;;;5070899;28;20192;-78
2022/06/12 13:42:15;;;;;;;1.65;1.00;;;11.00;99.90;;;;;;5065629;28;20220;-78
2022/06/12 13:44:49;;;;;;;1.35;1.20;;;11.00;99.90;;;;;;5064922;28;20220;-78
2022/06/12 13:47:32;;;;;;;2.08;1.30;;;11.00;99.90;;;;;;5069387;28;20211;-78
2022/06/12 13:50:17;;;;;;;1.52;1.38;;;11.00;99.90;;;;;;5060050;28;20631;-78
2022/06/12 13:52:55;;;;;;;2.65;1.30;;;10.90;99.90;;;;;;5062517;28;20192;-78
2022/06/12 13:55:27;;;;;;;2.97;2.00;;;10.80;99.90;;;;;;5066902;28;20193;-78
2022/06/12 13:58:02;;;;;;;5.05;1.90;;;10.80;99.90;;;;;;5064673;28;20193;-78
2022/06/12 14:00:38;;;;;;;3.35;2.08;;;10.70;99.90;;;;;;5064249;28;20188;-78
2022/06/12 14:03:21;;;;;;;3.53;2.25;;;10.70;99.90;;;;;;5067833;28;20232;-78
2022/06/12 14:05:56;;;;;;;3.60;2.10;;;10.60;99.90;;;;;;5068701;28;20200;-78
2022/06/12 14:08:29;;;;;;;4.13;2.53;;;10.60;99.90;;;;;;5072572;28;20193;-78
2022/06/12 14:11:01;;;;;;;3.45;2.20;;;10.60;99.90;;;;;;5066802;28;20244;-78
2022/06/12 14:13:36;;;;;;;3.50;2.35;;;10.50;99.90;;;;;;5072745;28;20251;-78
2022/06/12 14:16:13;;;;;;;5.28;2.50;;;10.40;99.90;;;;;;5062620;28;20184;-78
2022/06/12 14:18:56;;;;;;;4.13;2.38;;;10.40;99.90;;;;;;5072113;28;20211;-78
2022/06/12 14:21:29;;;;;;;4.03;2.22;;;10.40;99.90;;;;;;5065198;28;20205;-78
2022/06/12 14:24:01;;;;;;;4.45;2.35;;;10.40;99.90;;;;;;5071314;28;20224;-78
2022/06/12 14:26:44;;;;;;;2.90;2.10;;;10.30;99.90;;;;;;5072271;28;20220;-78
2022/06/12 14:29:44;;;;;;;3.58;2.40;;;10.30;99.90;;;;;;5069584;28;20254;-78
2022/06/12 14:32:31;;;;;;;3.92;2.45;;;10.20;99.90;;;;;;5064712;28;20671;-78
2022/06/12 14:35:19;;;;;;;3.13;2.10;;;10.20;99.90;;;;;;5069135;28;20668;-78
2022/06/12 14:37:58;;;;;;;4.35;2.30;;;10.20;99.90;;;;;;5072906;28;20204;-78
2022/06/12 14:40:36;;;;;;;3.88;2.10;;;10.20;99.90;;;;;;5066282;28;20769;-78
2022/06/12 14:43:16;;;;;;;4.22;2.25;;;10.20;99.90;;;;;;5069166;28;20213;-78
2022/06/12 14:45:49;;;;;;;3.17;2.10;;;10.20;99.90;;;;;;5071948;28;20192;-77
2022/06/12 14:48:26;;;;;;;4.68;2.30;;;10.20;99.90;;;;;;5070913;28;20193;-78
2022/06/12 14:50:58;;;;;;;4.25;2.20;;;10.10;99.90;;;;;;5057306;28;20246;-77
2022/06/12 14:53:29;;;;;;;3.00;2.17;;;10.10;99.90;;;;;;5071353;28;20195;-77
2022/06/12 14:56:02;;;;;;;3.20;2.00;;;10.00;99.90;;;;;;5066046;28;20208;-78
2022/06/12 14:58:44;;;;;;;3.28;2.30;;;9.90;99.90;;;;;;5069376;28;20185;-78
2022/06/12 15:01:18;;;;;;;5.35;2.20;;;9.90;99.90;;;;;;5071629;28;20252;-78
2022/06/12 15:03:51;;;;;;;3.03;2.20;;;9.80;99.90;;;;;;5069167;28;20225;-78
2022/06/12 15:06:22;;;;;;;3.72;2.28;;;9.80;99.90;;;;;;5066970;28;20201;-78
2022/06/12 15:08:53;;;;;;;3.67;2.40;;;9.80;99.90;;;;;;5071725;28;20196;-78
2022/06/12 15:11:25;;;;;;;5.05;2.60;;;9.80;99.90;;;;;;5072961;28;20527;-78
2022/06/12 15:13:57;;;;;;;4.38;2.38;;;9.80;99.90;;;;;;5071048;28;20200;-78
2022/06/12 15:16:29;;;;;;;2.40;2.17;;;9.80;99.90;;;;;;5068116;28;20212;-77
2022/06/12 15:19:02;;;;;;;4.43;2.60;;;9.80;99.90;;;;;;5068834;28;20190;-78
2022/06/12 15:21:36;;;;;;;4.78;2.30;;;9.70;99.90;;;;;;5068888;28;20204;-77
2022/06/12 15:24:09;;;;;;;4.05;2.38;;;9.80;99.90;;;;;;5062072;28;20215;-78
2022/06/12 15:32:17;;;;;;;5.57;2.30;;;9.70;99.90;;;;;;5073006;28;20267;-78
2022/06/12 15:34:54;;;;;;;4.47;2.67;;;9.70;99.90;;;;;;5071376;28;20193;-77
2022/06/12 15:37:27;;;;;;;3.83;2.45;;;9.70;99.90;;;;;;5069189;28;20250;-78
2022/06/12 15:39:57;;;;;;;4.30;2.55;;;9.70;99.90;;;;;;5069142;28;20200;-78
2022/06/12 15:42:29;;;;;;;4.70;2.60;;;9.70;99.90;;;;;;5065784;28;20209;-78
2022/06/12 15:44:59;;;;;;;3.67;2.60;;;9.70;99.90;;;;;;5070284;28;20558;-77
2022/06/12 15:47:33;;;;;;;4.18;2.53;;;9.70;99.90;;;;;;5068126;28;20656;-78
2022/06/12 15:50:10;;;;;;;4.35;2.75;;;9.60;99.90;;;;;;5071212;28;20248;-78
2022/06/12 15:52:41;;;;;;;3.42;2.40;;;9.70;99.90;;;;;;5069785;28;20196;-78
2022/06/12 15:55:12;;;;;;;4.68;2.90;;;9.60;99.90;;;;;;5069025;28;20196;-78
2022/06/12 15:57:43;;;;;;;3.92;2.60;;;9.60;99.90;;;;;;5070485;28;20660;-78